Dover AFB, DE

4:11 AM EDT on May 26, 2017 (GMT -0400)
Dover Air Force Base

Weather History for KDOV - May, 2014

Change the Weather History Date:

Friday, May 9, 2014

  Actual Average Record
Temperature  
Mean Temperature 61 °F -  
Max Temperature 66 °F 72 °F 91 °F (1963)
Min Temperature 56 °F 49 °F 36 °F (1956)
Degree Days  
Heating Degree Days 4    
Growing Degree Days 11 (Base 50)    
Moisture  
Dew Point 60 °F    
Average Humidity 100    
Maximum Humidity 100    
Minimum Humidity 94    
Precipitation  
Precipitation 0.00 in - - ()
Sea Level Pressure  
Sea Level Pressure 30.04 in    
Wind  
Wind Speed 6 mph (ESE)    
Max Wind Speed 10 mph    
Max Gust Speed -    
Visibility 6 miles    
Events Fog    
Averages and records for this station are not official NWS values.
T = Trace of Precipitation, MM = Missing Value Source: NWS Daily Summary

Daily Weather History Graph

Daily Weather History Graph

Search for Another Location

Airport or City:

Trip Planner

Search our weather history database for the weather conditions in past years. The results will help you decide how hot, cold, wet, or windy it might be!

Date:

Astronomy

May. 09, 2014 Rise Set
Actual Time 5:54 AM EDT 8:02 PM EDT
Civil Twilight 5:25 AM EDT 8:32 PM EDT
Nautical Twilight 4:48 AM EDT 9:08 PM EDT
Astronomical Twilight 4:09 AM EDT 9:48 PM EDT
Moon 3:00 PM EDT (5/9) 2:53 AM EDT (5/9)
Length of Visible Light 15h 07m
Length of Day
14h 07m
Waxing Gibbous, 73% of the Moon is Illuminated
May 9
Waxing Gibbous
May 14
Full
May 21
Last Quarter
May 28
New
Jun 5
First Quarter

Hourly Weather History & Observations

Time (EDT) Temp. Dew Point Humidity Pressure Visibility Wind Dir Wind Speed Gust Speed Precip Events Conditions
12:03 AM 57.2 °F 57.2 °F 100% 30.10 in 10.0 mi East 8.1 mph - N/A   Overcast
12:28 AM 57.2 °F 57.2 °F 100% 30.11 in 10.0 mi East 6.9 mph - N/A   Overcast
12:58 AM 57.4 °F 57.4 °F 100% 30.12 in 10.0 mi Variable 6.9 mph - N/A   Overcast
1:08 AM 57.2 °F 57.2 °F 100% 30.11 in 10.0 mi East 6.9 mph - N/A   Overcast
1:18 AM 57.2 °F 57.2 °F 100% 30.11 in 10.0 mi East 5.8 mph - N/A   Overcast
1:58 AM 57.9 °F 57.9 °F 100% 30.12 in 10.0 mi Variable 5.8 mph - N/A   Overcast
2:43 AM 59.0 °F 59.0 °F 100% 30.08 in 10.0 mi East 5.8 mph - N/A   Overcast
2:58 AM 58.3 °F 58.3 °F 100% 30.09 in 10.0 mi ESE 6.9 mph - N/A   Overcast
3:58 AM 57.6 °F 57.6 °F 100% 30.08 in 10.0 mi ESE 8.1 mph - N/A   Overcast
4:03 AM 57.2 °F 57.2 °F 100% 30.06 in 10.0 mi East 10.4 mph - N/A   Overcast
4:38 AM 57.2 °F 57.2 °F 100% 30.07 in 8.0 mi ESE 3.5 mph - N/A   Overcast
4:58 AM 57.2 °F 57.2 °F 100% 30.09 in 7.0 mi East 3.5 mph - N/A   Overcast
5:18 AM 57.2 °F 57.2 °F 100% 30.08 in 4.0 mi ENE 4.6 mph - N/A   Overcast
5:28 AM 57.2 °F 57.2 °F 100% 30.08 in 2.5 mi East 4.6 mph - N/A   Overcast
5:43 AM 57.2 °F 57.2 °F 100% 30.08 in 4.0 mi ENE 5.8 mph - N/A   Overcast
5:53 AM 57.2 °F 57.2 °F 100% 30.09 in 4.0 mi NNE 3.5 mph - N/A   Overcast
5:58 AM 56.7 °F 56.7 °F 100% 30.09 in 3.0 mi ENE 3.5 mph - N/A   Overcast
6:08 AM 57.2 °F 57.2 °F 100% 30.09 in 2.5 mi Variable 2.3 mph - N/A   Overcast
6:18 AM 57.2 °F 57.2 °F 100% 30.09 in 3.0 mi ENE 4.6 mph - N/A   Overcast
6:58 AM 56.7 °F 56.7 °F 100% 30.11 in 4.0 mi East 5.8 mph - N/A   Overcast
7:58 AM 57.2 °F 57.2 °F 100% 30.11 in 4.0 mi ENE 5.8 mph - N/A   Overcast
8:58 AM 57.6 °F 57.6 °F 100% 30.11 in 10.0 mi East 6.9 mph - N/A   Overcast
9:58 AM 57.9 °F 57.9 °F 100% 30.12 in 4.0 mi Variable 2.3 mph - N/A   Overcast
10:58 AM 59.0 °F 59.0 °F 100% 30.13 in 8.0 mi ENE 3.5 mph - N/A   Overcast
11:23 AM 59.0 °F 59.0 °F 100% 30.11 in 8.0 mi ENE 4.6 mph - N/A   Overcast
11:58 AM 61.5 °F 61.3 °F 99% 30.12 in 10.0 mi Variable 5.8 mph - N/A   Overcast
12:08 PM 62.6 °F 62.6 °F 100% 30.10 in 10.0 mi ENE 4.6 mph - N/A   Overcast
12:18 PM 62.6 °F 62.6 °F 100% 30.10 in 10.0 mi Variable 4.6 mph - N/A   Overcast
12:23 PM 62.6 °F 62.6 °F 100% 30.09 in 10.0 mi Variable 4.6 mph - N/A   Overcast
12:43 PM 62.6 °F 62.6 °F 100% 30.09 in 10.0 mi East 4.6 mph - N/A   Overcast
12:58 PM 62.2 °F 62.2 °F 100% 30.10 in 10.0 mi East 4.6 mph - N/A   Overcast
1:13 PM 62.6 °F 62.6 °F 100% 30.09 in 10.0 mi SE 5.8 mph - N/A   Overcast
1:18 PM 62.6 °F 62.6 °F 100% 30.09 in 10.0 mi ESE 4.6 mph - N/A   Overcast
1:38 PM 64.4 °F 64.4 °F 100% 30.08 in 10.0 mi Variable 4.6 mph - N/A   Overcast
1:53 PM 64.4 °F 64.4 °F 100% 30.08 in 10.0 mi Variable 3.5 mph - N/A   Overcast
1:58 PM 63.9 °F 63.9 °F 100% 30.09 in 10.0 mi ESE 5.8 mph - N/A   Overcast
2:38 PM 66.2 °F 64.4 °F 94% 30.06 in 10.0 mi East 5.8 mph - N/A   Overcast
2:43 PM 66.2 °F 64.4 °F 94% 30.05 in 10.0 mi East 8.1 mph - N/A   Overcast
2:58 PM 66.2 °F 64.4 °F 94% 30.06 in 10.0 mi East 8.1 mph - N/A   Overcast
3:08 PM 66.2 °F 64.4 °F 94% 30.04 in 10.0 mi East 8.1 mph - N/A   Overcast
3:58 PM 65.5 °F 65.5 °F 100% 30.03 in 10.0 mi East 5.8 mph - N/A   Overcast
4:58 PM 64.4 °F 64.4 °F 100% 30.01 in 10.0 mi East 6.9 mph - N/A   Overcast
5:58 PM 63.5 °F 63.5 °F 100% 30.01 in 10.0 mi SE 8.1 mph - N/A   Overcast
6:08 PM 62.6 °F 62.6 °F 100% 30.00 in 10.0 mi SE 8.1 mph - N/A   Overcast
6:33 PM 62.6 °F 62.6 °F 100% 30.00 in 10.0 mi SE 8.1 mph - N/A   Overcast
6:43 PM 62.6 °F 62.6 °F 100% 30.00 in 10.0 mi SE 6.9 mph - N/A   Overcast
6:58 PM 63.1 °F 63.1 °F 100% 30.00 in 10.0 mi SSE 5.8 mph - N/A   Overcast
7:43 PM 62.6 °F 62.6 °F 100% 29.99 in 10.0 mi ESE 3.5 mph - N/A   Overcast
7:53 PM 62.6 °F 62.6 °F 100% 29.99 in 10.0 mi ENE 3.5 mph - N/A   Overcast
7:58 PM 62.1 °F 62.1 °F 100% 29.99 in 10.0 mi East 5.8 mph - N/A   Overcast
8:08 PM 60.8 °F 60.8 °F 100% 29.98 in 5.0 mi East 4.6 mph - N/A   Overcast
8:18 PM 60.8 °F 60.8 °F 100% 29.98 in 2.0 mi East 3.5 mph - N/A   Overcast
8:23 PM 60.8 °F 60.8 °F 100% 29.98 in 2.0 mi Variable 5.8 mph - N/A   Overcast
8:28 PM 60.8 °F 60.8 °F 100% 29.98 in 1.2 mi East 4.6 mph - N/A   Overcast
8:33 PM 60.8 °F 60.8 °F 100% 29.98 in 1.0 mi ESE 5.8 mph - N/A   Mist
8:38 PM 60.8 °F 60.8 °F 100% 29.98 in 1.0 mi East 6.9 mph - N/A   Mist
8:43 PM 60.8 °F 60.8 °F 100% 29.97 in 1.0 mi Variable 5.8 mph - N/A   Mist
8:53 PM 60.8 °F 60.8 °F 100% 29.97 in 0.8 mi East 6.9 mph - N/A   Mist
8:58 PM 60.1 °F 60.1 °F 100% 29.98 in 0.8 mi East 5.8 mph - N/A   Mist
9:03 PM 60.8 °F 60.8 °F 100% 29.97 in 0.5 mi East 5.8 mph - N/A Fog Fog
9:08 PM 60.8 °F 60.8 °F 100% 29.97 in 0.8 mi East 5.8 mph - N/A   Mist
9:13 PM 60.8 °F 60.8 °F 100% 29.97 in 0.8 mi East 5.8 mph - N/A   Mist
9:18 PM 60.8 °F 60.8 °F 100% 29.97 in 1.0 mi East 8.1 mph - N/A   Mist
9:28 PM 60.8 °F 60.8 °F 100% 29.97 in 1.0 mi ESE 5.8 mph - N/A   Mist
9:33 PM 60.8 °F 60.8 °F 100% 29.97 in 1.0 mi ESE 5.8 mph - N/A   Mist
9:38 PM 60.8 °F 60.8 °F 100% 29.97 in 1.2 mi ESE 5.8 mph - N/A   Overcast
9:43 PM 60.8 °F 60.8 °F 100% 29.97 in 1.5 mi SE 5.8 mph - N/A   Overcast
9:48 PM 60.8 °F 60.8 °F 100% 29.97 in 1.8 mi ESE 5.8 mph - N/A   Overcast
9:53 PM 60.8 °F 60.8 °F 100% 29.97 in 1.8 mi SE 6.9 mph - N/A   Overcast
9:58 PM 59.9 °F 59.9 °F 100% 29.98 in 1.5 mi SE 5.8 mph - N/A   Overcast
10:18 PM 59.0 °F 59.0 °F 100% 29.98 in 2.0 mi SE 6.9 mph - N/A   Overcast
10:28 PM 59.0 °F 59.0 °F 100% 29.97 in 2.5 mi SE 5.8 mph - N/A   Overcast
10:33 PM 59.0 °F 59.0 °F 100% 29.98 in 2.5 mi ESE 5.8 mph - N/A   Overcast
10:38 PM 59.0 °F 59.0 °F 100% 29.98 in 3.0 mi SE 4.6 mph - N/A   Overcast
10:48 PM 59.0 °F 59.0 °F 100% 29.98 in 2.5 mi SE 8.1 mph - N/A   Overcast
10:58 PM 59.5 °F 59.5 °F 100% 29.99 in 2.5 mi ESE 5.8 mph - N/A   Overcast
11:03 PM 59.0 °F 59.0 °F 100% 29.97 in 3.0 mi SE 4.6 mph - N/A   Overcast
11:13 PM 59.0 °F 59.0 °F 100% 29.97 in 2.5 mi SE 6.9 mph - N/A   Overcast
11:23 PM 59.0 °F 59.0 °F 100% 29.96 in 3.0 mi SE 5.8 mph - N/A   Overcast
11:38 PM 59.0 °F 59.0 °F 100% 29.97 in 6.0 mi SSE 6.9 mph - N/A   Overcast
11:58 PM 59.0 °F 59.0 °F 100% 29.97 in 8.0 mi SE 4.6 mph - N/A   Overcast